createdAt,value
2023-04-12T00:00:02.997Z,88.696289
2023-04-12T00:01:12.768Z,88.800049
2023-04-12T00:02:21.602Z,88.903809
2023-04-12T00:03:30.223Z,88.903809
2023-04-12T00:04:39.888Z,88.903809
2023-04-12T00:05:48.474Z,88.800049
2023-04-12T00:06:58.120Z,88.903809
2023-04-12T00:08:05.775Z,88.903809
2023-04-12T00:09:14.467Z,88.903809
2023-04-12T00:10:24.139Z,88.861084
2023-04-12T00:11:32.789Z,88.653564
2023-04-12T00:12:42.467Z,88.549805
2023-04-12T00:13:51.131Z,88.800049
2023-04-12T00:14:59.828Z,88.653564
2023-04-12T00:16:10.499Z,88.696289
2023-04-12T00:17:18.181Z,88.903809
2023-04-12T00:18:27.804Z,88.757324
2023-04-12T00:19:37.484Z,88.757324
2023-04-12T00:20:46.158Z,88.653564
2023-04-12T00:21:54.835Z,88.549805
2023-04-12T00:23:02.499Z,88.446045
2023-04-12T00:24:11.230Z,88.342285
2023-04-12T00:25:20.893Z,88.342285
2023-04-12T00:26:28.543Z,88.342285
2023-04-12T00:27:37.243Z,88.238525
2023-04-12T00:28:46.942Z,88.098145
2023-04-12T00:29:55.607Z,87.994385
2023-04-12T00:31:05.320Z,87.786865
2023-04-12T00:32:13.991Z,87.786865
2023-04-12T00:33:22.642Z,87.786865
2023-04-12T00:34:32.323Z,87.683105
2023-04-12T00:35:39.016Z,87.683105
2023-04-12T00:36:46.650Z,87.579346
2023-04-12T00:37:56.346Z,87.371826
2023-04-12T00:39:05.027Z,87.371826
2023-04-12T00:40:14.736Z,87.17041
2023-04-12T00:41:24.432Z,87.023926
2023-04-12T00:42:34.166Z,86.920166
2023-04-12T00:43:43.821Z,86.816406
2023-04-12T00:44:53.494Z,86.755371
2023-04-12T00:46:03.151Z,86.712646
2023-04-12T00:47:12.804Z,86.712646
2023-04-12T00:48:22.550Z,86.712646
2023-04-12T00:49:31.248Z,86.712646
2023-04-12T00:50:40.923Z,86.608887
2023-04-12T00:51:49.582Z,86.505127
2023-04-12T00:52:59.286Z,86.303711
2023-04-12T00:54:07.933Z,86.199951
2023-04-12T00:55:15.615Z,86.096191
2023-04-12T00:56:25.272Z,85.949707
2023-04-12T00:57:34.946Z,85.852051
2023-04-12T00:58:43.610Z,85.681152
2023-04-12T00:59:52.299Z,85.784912
2023-04-12T01:01:01.032Z,85.992432
2023-04-12T01:02:10.713Z,85.577393
2023-04-12T01:03:19.467Z,85.540771
2023-04-12T01:04:28.959Z,85.333252
2023-04-12T01:05:38.674Z,85.229492
2023-04-12T01:06:48.307Z,85.437012
2023-04-12T01:07:56.984Z,85.333252
2023-04-12T01:09:05.667Z,85.333252
2023-04-12T01:10:14.354Z,85.333252
2023-04-12T01:11:24.019Z,85.229492
2023-04-12T01:12:33.694Z,85.125732
2023-04-12T01:13:42.327Z,85.021973
2023-04-12T01:14:50.972Z,84.918213
2023-04-12T01:15:59.668Z,84.985352
2023-04-12T01:17:09.305Z,84.881592
2023-04-12T01:18:18.975Z,84.918213
2023-04-12T01:19:27.648Z,85.125732
2023-04-12T01:20:37.365Z,85.229492
2023-04-12T01:21:46.097Z,85.229492
2023-04-12T01:22:54.754Z,85.021973
2023-04-12T01:24:04.424Z,84.814453
2023-04-12T01:25:13.131Z,84.918213
2023-04-12T01:26:20.858Z,84.814453
2023-04-12T01:27:29.562Z,84.814453
2023-04-12T01:28:39.188Z,84.777832
2023-04-12T01:29:48.860Z,85.021973
2023-04-12T01:30:57.609Z,85.125732
2023-04-12T01:32:05.362Z,85.333252
2023-04-12T01:33:14.967Z,85.192871
2023-04-12T01:34:23.623Z,85.229492
2023-04-12T01:35:33.406Z,85.125732
2023-04-12T01:36:41.985Z,84.985352
2023-04-12T01:37:50.690Z,84.881592
2023-04-12T01:39:00.318Z,84.814453
2023-04-12T01:40:09.053Z,84.814453
2023-04-12T01:41:16.743Z,84.716797
2023-04-12T01:42:26.426Z,84.466553
2023-04-12T01:43:35.083Z,84.466553
2023-04-12T01:44:43.748Z,84.466553
2023-04-12T01:45:52.512Z,84.570312
2023-04-12T01:47:02.204Z,84.362793
2023-04-12T01:48:11.903Z,84.265137
2023-04-12T01:49:21.537Z,84.161377
2023-04-12T01:50:30.231Z,84.265137
2023-04-12T01:51:38.903Z,84.265137
2023-04-12T01:52:48.568Z,84.326172
2023-04-12T01:53:57.410Z,84.466553
2023-04-12T01:55:06.956Z,84.881592
2023-04-12T01:56:14.645Z,84.838867
2023-04-12T01:57:22.301Z,85.046387
2023-04-12T01:58:32.013Z,85.150146
2023-04-12T01:59:40.740Z,85.357666
2023-04-12T02:00:49.440Z,85.565186
2023-04-12T02:01:59.108Z,85.565186
2023-04-12T02:03:07.773Z,85.565186
2023-04-12T02:04:17.423Z,85.253906
2023-04-12T02:05:26.090Z,85.461426
2023-04-12T02:06:35.794Z,85.668945
2023-04-12T02:07:45.478Z,85.974121
2023-04-12T02:08:54.170Z,85.974121
2023-04-12T02:10:03.891Z,86.633301
2023-04-12T02:11:13.538Z,87.04834
2023-04-12T02:12:22.225Z,87.768555
2023-04-12T02:13:31.951Z,88.183594
2023-04-12T02:14:39.642Z,87.768555
2023-04-12T02:15:47.354Z,88.287354
2023-04-12T02:16:57.102Z,88.38501
2023-04-12T02:18:05.746Z,88.592529
2023-04-12T02:19:14.418Z,89.050293
2023-04-12T02:20:23.088Z,89.355469
2023-04-12T02:21:32.780Z,89.666748
2023-04-12T02:22:42.447Z,89.978027
2023-04-12T02:23:50.112Z,90.081787
2023-04-12T02:24:57.776Z,90.490723
2023-04-12T02:26:07.500Z,90.655518
2023-04-12T02:27:17.134Z,90.863037
2023-04-12T02:28:25.811Z,90.905762
2023-04-12T02:29:34.508Z,91.113281
2023-04-12T02:30:42.199Z,91.320801
2023-04-12T02:31:50.909Z,91.320801
2023-04-12T02:33:00.650Z,91.320801
2023-04-12T02:34:08.297Z,91.113281
2023-04-12T02:35:17.996Z,91.625977
2023-04-12T02:36:27.663Z,91.522217
2023-04-12T02:37:36.362Z,92.041016
2023-04-12T02:38:46.096Z,92.041016
2023-04-12T02:39:55.710Z,92.041016
2023-04-12T02:41:05.401Z,92.352295
2023-04-12T02:42:13.082Z,92.657471
2023-04-12T02:43:21.759Z,92.657471
2023-04-12T02:44:31.422Z,93.011475
2023-04-12T02:45:40.137Z,93.115234
2023-04-12T02:46:48.846Z,93.322754
2023-04-12T02:47:57.584Z,93.426514
2023-04-12T02:49:06.189Z,93.634033
2023-04-12T02:50:15.863Z,93.835449
2023-04-12T02:51:23.574Z,94.042969
2023-04-12T02:52:32.237Z,94.250488
2023-04-12T02:53:41.910Z,94.458008
2023-04-12T02:54:51.591Z,94.354248
2023-04-12T02:56:00.267Z,94.561768
2023-04-12T02:57:09.938Z,94.769287
2023-04-12T02:58:18.748Z,94.970703
2023-04-12T02:59:28.313Z,95.074463
2023-04-12T03:00:36.989Z,95.074463
2023-04-12T03:01:44.759Z,95.385742
2023-04-12T03:02:54.444Z,95.489502
2023-04-12T03:04:03.081Z,95.593262
2023-04-12T03:05:11.703Z,95.593262
2023-04-12T03:06:20.502Z,95.904541
2023-04-12T03:07:29.256Z,96.008301
2023-04-12T03:08:38.914Z,96.008301
2023-04-12T03:09:47.588Z,96.008301
2023-04-12T03:10:57.251Z,96.008301
2023-04-12T03:12:06.962Z,96.166992
2023-04-12T03:13:15.632Z,96.063232
2023-04-12T03:14:25.330Z,96.270752
2023-04-12T03:15:35.014Z,96.270752
2023-04-12T03:16:43.713Z,96.313477
2023-04-12T03:17:53.537Z,96.417236
2023-04-12T03:19:02.167Z,96.417236
2023-04-12T03:20:09.963Z,96.417236
2023-04-12T03:21:18.489Z,96.417236
2023-04-12T03:22:28.205Z,96.478271
2023-04-12T03:23:36.884Z,96.313477
2023-04-12T03:24:45.573Z,96.520996
2023-04-12T03:25:54.269Z,96.624756
2023-04-12T03:27:03.965Z,96.624756
2023-04-12T03:28:11.606Z,96.582031
2023-04-12T03:29:20.263Z,96.374512
2023-04-12T03:30:30.002Z,96.478271
2023-04-12T03:31:38.783Z,96.270752
2023-04-12T03:32:47.387Z,96.374512
2023-04-12T03:35:05.734Z,96.209717
2023-04-12T03:36:15.451Z,96.209717
2023-04-12T03:37:23.477Z,96.624756
2023-04-12T03:38:32.188Z,96.728516
2023-04-12T03:39:41.865Z,96.624756
2023-04-12T03:40:51.587Z,96.624756
2023-04-12T03:42:00.325Z,96.624756
2023-04-12T03:43:09.066Z,96.832275
2023-04-12T03:44:17.758Z,96.728516
2023-04-12T03:45:27.468Z,96.728516
2023-04-12T03:46:36.329Z,96.624756
2023-04-12T03:47:45.005Z,96.624756
2023-04-12T03:48:52.666Z,96.832275
2023-04-12T03:51:09.991Z,97.039795
2023-04-12T03:52:19.749Z,96.832275
2023-04-12T03:53:28.439Z,97.039795
2023-04-12T03:54:36.146Z,96.936035
2023-04-12T03:55:45.876Z,97.344971
2023-04-12T03:56:54.607Z,97.143555
2023-04-12T03:58:03.384Z,97.247314
2023-04-12T03:59:12.059Z,97.247314
2023-04-12T04:00:21.772Z,97.44873
2023-04-12T04:01:32.182Z,97.55249
2023-04-12T04:02:43.818Z,97.44873
2023-04-12T04:03:51.777Z,97.55249
2023-04-12T04:05:01.581Z,97.55249
2023-04-12T04:06:10.325Z,97.76001
2023-04-12T04:07:19.227Z,97.906494
2023-04-12T04:08:28.932Z,98.114014
2023-04-12T04:09:37.681Z,97.967529
2023-04-12T04:10:47.469Z,98.071289
2023-04-12T04:11:55.446Z,97.86377
2023-04-12T04:13:04.274Z,97.86377
2023-04-12T04:14:14.093Z,97.86377
2023-04-12T04:15:23.774Z,98.010254
2023-04-12T04:16:32.507Z,98.217773
2023-04-12T04:17:41.271Z,98.321533
2023-04-12T04:18:50.000Z,98.529053
2023-04-12T04:19:59.876Z,98.529053
2023-04-12T04:21:07.638Z,98.529053
2023-04-12T04:22:16.425Z,98.632812
2023-04-12T04:23:26.134Z,98.632812
2023-04-12T04:24:34.812Z,98.736572
2023-04-12T04:25:42.529Z,98.736572
2023-04-12T04:26:52.198Z,98.944092
2023-04-12T04:28:01.000Z,98.840332
2023-04-12T04:29:09.670Z,98.944092
2023-04-12T04:30:17.341Z,98.840332
2023-04-12T04:31:28.001Z,98.840332
2023-04-12T04:32:37.780Z,98.944092
2023-04-12T04:33:47.363Z,98.944092
2023-04-12T04:34:56.058Z,98.840332
2023-04-12T04:36:05.726Z,98.736572
2023-04-12T04:37:14.425Z,98.944092
2023-04-12T04:38:24.135Z,99.151611
2023-04-12T04:39:32.900Z,98.999023
2023-04-12T04:40:39.562Z,98.895264
2023-04-12T04:41:49.247Z,98.840332
2023-04-12T04:42:58.009Z,98.840332
2023-04-12T04:44:06.693Z,98.895264
2023-04-12T04:45:15.392Z,98.944092
2023-04-12T04:46:25.161Z,98.944092
2023-04-12T04:47:34.903Z,99.047852
2023-04-12T04:48:43.566Z,99.151611
2023-04-12T04:49:51.253Z,99.151611
2023-04-12T04:51:01.069Z,99.151611
2023-04-12T04:52:09.717Z,99.151611
2023-04-12T04:53:19.492Z,99.151611
2023-04-12T04:54:28.228Z,99.353027
2023-04-12T04:55:36.920Z,99.353027
2023-04-12T04:56:46.599Z,99.353027
2023-04-12T04:57:56.288Z,99.353027
2023-04-12T04:59:03.985Z,99.353027
2023-04-12T05:00:12.645Z,99.249268
2023-04-12T05:01:21.381Z,99.249268
2023-04-12T05:02:30.118Z,99.151611
2023-04-12T05:03:38.806Z,99.047852
2023-04-12T05:04:47.493Z,99.047852
2023-04-12T05:05:57.180Z,99.102783
2023-04-12T05:07:05.920Z,98.999023
2023-04-12T05:08:13.588Z,98.944092
2023-04-12T05:09:23.317Z,98.944092
2023-04-12T05:10:32.027Z,99.151611
2023-04-12T05:11:40.724Z,99.102783
2023-04-12T05:12:49.449Z,98.999023
2023-04-12T05:13:59.171Z,98.944092
2023-04-12T05:15:11.865Z,98.840332
2023-04-12T05:16:18.622Z,99.047852
2023-04-12T05:17:27.334Z,99.102783
2023-04-12T05:18:37.012Z,98.999023
2023-04-12T05:19:45.755Z,98.748779
2023-04-12T05:20:54.463Z,98.486328
2023-04-12T05:22:03.129Z,98.583984
2023-04-12T05:23:11.927Z,98.687744
2023-04-12T05:24:22.601Z,98.583984
2023-04-12T05:25:29.346Z,98.632812
2023-04-12T05:26:38.037Z,98.632812
2023-04-12T05:27:48.756Z,98.944092
2023-04-12T05:28:57.650Z,99.047852
2023-04-12T05:30:06.151Z,99.151611
2023-04-12T05:31:14.976Z,99.249268
2023-04-12T05:32:23.676Z,99.206543
2023-04-12T05:33:33.519Z,99.047852
2023-04-12T05:34:42.146Z,99.047852
2023-04-12T05:35:51.891Z,99.047852
2023-04-12T05:37:01.642Z,99.151611
2023-04-12T05:38:10.361Z,99.102783
2023-04-12T05:39:20.573Z,99.047852
2023-04-12T05:40:28.752Z,98.999023
2023-04-12T05:41:37.453Z,98.895264
2023-04-12T05:42:47.197Z,98.999023
2023-04-12T05:43:54.934Z,98.999023
2023-04-12T05:45:03.647Z,98.895264
2023-04-12T05:46:12.340Z,98.999023
2023-04-12T05:47:21.041Z,98.944092
2023-04-12T05:48:30.762Z,98.895264
2023-04-12T05:49:40.485Z,98.895264
2023-04-12T05:50:49.247Z,98.791504
2023-04-12T05:51:58.984Z,98.895264
2023-04-12T05:53:08.741Z,98.791504
2023-04-12T05:54:17.530Z,98.687744
2023-04-12T05:55:26.255Z,98.687744
2023-04-12T05:56:36.189Z,98.852539
2023-04-12T05:57:44.936Z,98.64502
2023-04-12T05:58:54.824Z,98.54126
2023-04-12T06:00:02.416Z,98.583984
2023-04-12T06:01:10.095Z,98.486328
2023-04-12T06:02:19.928Z,98.486328
2023-04-12T06:03:29.569Z,98.486328
2023-04-12T06:04:49.902Z,98.54126
2023-04-12T06:05:49.907Z,98.54126
2023-04-12T06:06:58.596Z,98.4375
2023-04-12T06:08:08.325Z,98.126221
2023-04-12T06:09:17.002Z,98.22998
2023-04-12T06:10:25.676Z,98.4375
2023-04-12T06:11:35.415Z,98.4375
2023-04-12T06:12:44.044Z,98.33374
2023-04-12T06:13:52.768Z,98.33374
2023-04-12T06:15:01.496Z,98.291016
2023-04-12T06:16:10.173Z,98.083496
2023-04-12T06:17:19.864Z,98.126221
2023-04-12T06:18:27.558Z,98.126221
2023-04-12T06:19:36.235Z,98.126221
2023-04-12T06:20:45.939Z,97.924805
2023-04-12T06:21:55.637Z,98.083496
2023-04-12T06:23:04.360Z,98.022461
2023-04-12T06:24:13.057Z,98.022461
2023-04-12T06:25:21.786Z,98.126221
2023-04-12T06:26:37.379Z,98.22998
2023-04-12T06:27:42.391Z,98.4375
2023-04-12T06:28:50.929Z,98.291016
2023-04-12T06:30:00.622Z,97.875977
2023-04-12T06:31:10.290Z,97.924805
2023-04-12T06:32:19.989Z,97.717285
2023-04-12T06:33:29.677Z,97.772217
2023-04-12T06:34:38.371Z,97.668457
2023-04-12T06:35:48.060Z,97.668457
2023-04-12T06:36:55.747Z,97.668457
2023-04-12T06:38:04.490Z,97.924805
2023-04-12T06:39:14.224Z,98.083496
2023-04-12T06:40:22.923Z,97.979736
2023-04-12T06:41:31.570Z,97.833252
2023-04-12T06:42:42.381Z,97.937012
2023-04-12T06:43:51.190Z,97.833252
2023-04-12T06:45:00.850Z,97.625732
2023-04-12T06:46:09.548Z,97.625732
2023-04-12T06:47:18.222Z,97.680664
2023-04-12T06:48:28.007Z,97.375488
2023-04-12T06:49:36.701Z,97.375488
2023-04-12T06:50:45.412Z,97.479248
2023-04-12T06:51:56.092Z,97.583008
2023-04-12T06:53:04.885Z,97.375488
2023-04-12T06:54:14.589Z,97.167969
2023-04-12T06:55:23.274Z,97.375488
2023-04-12T06:56:32.995Z,97.271729
2023-04-12T06:57:42.679Z,97.43042
2023-04-12T06:58:52.430Z,97.32666
2023-04-12T07:00:01.095Z,97.375488
2023-04-12T07:01:10.739Z,97.43042
2023-04-12T07:02:19.514Z,97.271729
2023-04-12T07:03:29.264Z,97.583008
2023-04-12T07:04:37.930Z,97.479248
2023-04-12T07:05:45.545Z,97.680664
2023-04-12T07:06:55.268Z,97.680664
2023-04-12T07:08:03.974Z,97.888184
2023-04-12T07:09:12.712Z,97.888184
2023-04-12T07:10:21.429Z,98.150635
2023-04-12T07:11:30.168Z,98.052979
2023-04-12T07:12:39.873Z,97.680664
2023-04-12T07:13:48.567Z,97.991943
2023-04-12T07:14:57.436Z,97.845459
2023-04-12T07:16:07.036Z,97.680664
2023-04-12T07:17:15.711Z,97.583008
2023-04-12T07:18:24.468Z,97.637939
2023-04-12T07:19:32.237Z,97.949219
2023-04-12T07:20:40.909Z,97.845459
2023-04-12T07:21:50.572Z,97.741699
2023-04-12T07:22:59.262Z,97.796631
2023-04-12T07:24:07.017Z,97.32666
2023-04-12T07:25:17.713Z,97.021484
2023-04-12T07:26:26.422Z,97.32666
2023-04-12T07:27:35.135Z,97.491455
2023-04-12T07:28:43.841Z,97.595215
2023-04-12T07:29:52.534Z,97.491455
2023-04-12T07:31:02.272Z,97.387695
2023-04-12T07:32:09.995Z,97.43042
2023-04-12T07:33:20.194Z,97.692871
2023-04-12T07:34:29.485Z,97.491455
2023-04-12T07:35:38.502Z,97.283936
2023-04-12T07:36:47.186Z,97.180176
2023-04-12T07:37:55.876Z,97.283936
2023-04-12T07:39:04.604Z,97.229004
2023-04-12T07:40:14.297Z,97.692871
2023-04-12T07:41:22.026Z,97.546387
2023-04-12T07:42:30.690Z,97.076416
2023-04-12T07:43:39.440Z,97.283936
2023-04-12T07:44:48.155Z,97.546387
2023-04-12T07:45:56.864Z,97.546387
2023-04-12T07:47:06.598Z,97.338867
2023-04-12T07:48:15.473Z,97.241211
2023-04-12T07:49:23.031Z,97.338867
2023-04-12T07:50:32.779Z,97.088623
2023-04-12T07:51:42.526Z,97.088623
2023-04-12T07:52:52.240Z,97.088623
2023-04-12T07:54:00.971Z,97.192383
2023-04-12T07:55:09.665Z,97.088623
2023-04-12T07:56:19.376Z,96.783447
2023-04-12T07:57:27.086Z,96.368408
2023-04-12T07:58:35.768Z,96.734619
2023-04-12T07:59:45.543Z,96.679688
2023-04-12T08:00:55.241Z,97.045898
2023-04-12T08:02:04.976Z,97.045898
2023-04-12T08:03:13.762Z,96.533203
2023-04-12T08:04:22.886Z,96.636963
2023-04-12T08:05:32.396Z,96.838379
2023-04-12T08:06:41.018Z,96.899414
2023-04-12T08:07:48.723Z,96.588135
2023-04-12T08:08:58.423Z,96.588135
2023-04-12T08:10:07.179Z,96.136475
2023-04-12T08:11:15.933Z,95.562744
2023-04-12T08:12:24.614Z,95.355225
2023-04-12T08:13:33.323Z,95.86792
2023-04-12T08:14:44.078Z,95.812988
2023-04-12T08:15:52.822Z,95.648193
2023-04-12T08:17:02.503Z,96.063232
2023-04-12T08:18:12.244Z,96.063232
2023-04-12T08:19:20.974Z,96.325684
2023-04-12T08:20:29.704Z,96.325684
2023-04-12T08:21:39.407Z,96.533203
2023-04-12T08:22:48.123Z,96.636963
2023-04-12T08:23:57.983Z,96.899414
2023-04-12T08:25:06.565Z,96.899414
2023-04-12T08:26:15.313Z,96.691895
2023-04-12T08:27:25.015Z,96.484375
2023-04-12T08:28:34.777Z,96.54541
2023-04-12T08:29:43.681Z,96.54541
2023-04-12T08:30:53.400Z,96.075439
2023-04-12T08:32:02.099Z,96.44165
2023-04-12T08:33:11.862Z,96.337891
2023-04-12T08:34:20.599Z,95.666504
2023-04-12T08:35:29.304Z,95.770264
2023-04-12T08:36:39.179Z,96.386719
2023-04-12T08:37:47.861Z,96.484375
2023-04-12T08:38:57.581Z,96.484375
2023-04-12T08:40:07.316Z,96.795654
2023-04-12T08:41:16.963Z,96.691895
2023-04-12T08:42:26.714Z,96.899414
2023-04-12T08:43:36.374Z,97.265625
2023-04-12T08:44:44.078Z,97.265625
2023-04-12T08:45:53.788Z,97.058105
2023-04-12T08:47:03.527Z,97.424316
2023-04-12T08:48:12.250Z,97.424316
2023-04-12T08:49:22.012Z,97.528076
2023-04-12T08:50:31.718Z,97.216797
2023-04-12T08:51:41.447Z,97.119141
2023-04-12T08:52:48.137Z,97.369385
2023-04-12T08:53:55.905Z,97.265625
2023-04-12T08:55:05.562Z,97.265625
2023-04-12T08:56:14.256Z,97.412109
2023-04-12T08:57:21.923Z,97.77832
2023-04-12T08:58:30.651Z,97.570801
2023-04-12T08:59:38.364Z,97.77832
2023-04-12T09:00:48.083Z,97.674561
2023-04-12T09:01:57.881Z,97.88208
2023-04-12T09:03:04.655Z,98.345947
2023-04-12T09:04:14.270Z,98.345947
2023-04-12T09:05:22.952Z,98.449707
2023-04-12T09:06:32.811Z,98.144531
2023-04-12T09:07:41.492Z,97.833252
2023-04-12T09:08:50.164Z,97.790527
2023-04-12T09:09:59.903Z,97.741699
2023-04-12T09:11:07.581Z,97.277832
2023-04-12T09:12:15.280Z,97.479248
2023-04-12T09:13:24.956Z,97.644043
2023-04-12T09:14:33.616Z,97.540283
2023-04-12T09:15:42.330Z,97.595215
2023-04-12T09:16:51.076Z,97.491455
2023-04-12T09:17:59.868Z,96.618652
2023-04-12T09:19:09.659Z,96.777344
2023-04-12T09:20:18.293Z,96.716309
2023-04-12T09:21:28.152Z,96.820068
2023-04-12T09:22:37.879Z,96.466064
2023-04-12T09:23:47.624Z,96.160889
2023-04-12T09:24:57.417Z,95.953369
2023-04-12T09:26:07.118Z,96.31958
2023-04-12T09:27:16.829Z,96.789551
2023-04-12T09:28:26.665Z,96.276855
2023-04-12T09:29:34.357Z,95.76416
2023-04-12T09:30:43.041Z,95.97168
2023-04-12T09:31:52.864Z,95.458984
2023-04-12T09:33:02.594Z,95.092773
2023-04-12T09:34:11.321Z,94.830322
2023-04-12T09:35:21.027Z,95.147705
2023-04-12T09:36:30.749Z,95.251465
2023-04-12T09:37:40.473Z,95.001221
2023-04-12T09:38:47.236Z,93.835449
2023-04-12T09:39:55.951Z,94.195557
2023-04-12T09:41:04.793Z,93.786621
2023-04-12T09:42:29.573Z,93.334961
2023-04-12T09:43:24.017Z,93.237305
2023-04-12T09:44:33.819Z,92.010498
2023-04-12T09:45:41.576Z,92.62085
2023-04-12T09:46:50.330Z,92.474365
2023-04-12T09:48:00.002Z,92.736816
2023-04-12T09:49:08.668Z,89.654541
2023-04-12T09:50:17.387Z,91.192627
2023-04-12T09:51:26.096Z,91.760254
2023-04-12T09:52:35.772Z,90.740967
2023-04-12T09:53:44.506Z,89.245605
2023-04-12T09:54:53.202Z,90.374756
2023-04-12T09:56:00.964Z,90.374756
2023-04-12T09:57:10.723Z,90.679932
2023-04-12T09:58:19.357Z,90.679932
2023-04-12T09:59:28.082Z,89.758301
2023-04-12T10:00:37.743Z,90.533447
2023-04-12T10:01:46.496Z,90.899658
2023-04-12T10:02:56.591Z,89.575195
2023-04-12T10:04:05.966Z,88.653564
2023-04-12T10:05:13.675Z,89.0625
2023-04-12T10:06:23.266Z,88.757324
2023-04-12T10:07:33.031Z,88.409424
2023-04-12T10:08:42.715Z,88.568115
2023-04-12T10:09:51.408Z,89.855957
2023-04-12T10:10:59.154Z,87.200928
2023-04-12T10:12:08.907Z,88.38501
2023-04-12T10:13:16.661Z,88.85498
2023-04-12T10:14:25.254Z,86.877441
2023-04-12T10:15:35.012Z,85.552979
2023-04-12T10:16:43.779Z,86.737061
2023-04-12T10:17:53.582Z,86.2854
2023-04-12T10:19:03.165Z,85.028076
2023-04-12T10:20:11.843Z,84.515381
2023-04-12T10:21:21.548Z,84.210205
2023-04-12T10:22:30.286Z,84.313965
2023-04-12T10:23:38.979Z,81.237793
2023-04-12T10:24:48.700Z,83.843994
2023-04-12T10:25:57.409Z,82.727051
2023-04-12T10:27:06.083Z,83.679199
2023-04-12T10:28:14.785Z,84.967041
2023-04-12T10:29:23.478Z,84.008789
2023-04-12T10:30:33.212Z,82.543945
2023-04-12T10:31:41.983Z,82.141113
2023-04-12T10:32:49.629Z,80.81665
2023-04-12T10:33:59.283Z,80.755615
2023-04-12T10:35:08.981Z,81.402588
2023-04-12T10:36:17.854Z,83.056641
2023-04-12T10:37:27.470Z,81.591797
2023-04-12T10:38:37.204Z,81.109619
2023-04-12T10:39:47.922Z,79.180908
2023-04-12T10:40:55.577Z,80.36499
2023-04-12T10:42:03.429Z,78.22876
2023-04-12T10:43:13.155Z,78.33252
2023-04-12T10:44:22.888Z,80.529785
2023-04-12T10:45:31.587Z,79.980469
2023-04-12T10:46:41.313Z,77.514648
2023-04-12T10:47:49.096Z,75.994873
2023-04-12T10:48:58.928Z,75.823975
2023-04-12T10:50:07.396Z,75.518799
2023-04-12T10:51:15.137Z,76.031494
2023-04-12T10:52:25.772Z,75.048828
2023-04-12T10:53:34.443Z,77.008057
2023-04-12T10:54:42.096Z,75.518799
2023-04-12T10:55:50.843Z,76.464844
2023-04-12T10:57:00.530Z,73.864746
2023-04-12T10:58:10.231Z,75.793457
2023-04-12T10:59:19.949Z,76.977539
2023-04-12T11:00:28.601Z,73.931885
2023-04-12T11:01:39.108Z,74.981689
2023-04-12T11:02:48.011Z,76.605225
2023-04-12T11:03:56.727Z,77.178955
2023-04-12T11:05:05.436Z,77.484131
2023-04-12T11:06:26.813Z,77.282715
2023-04-12T11:07:25.698Z,76.708984
2023-04-12T11:08:34.376Z,76.812744
2023-04-12T11:09:43.159Z,76.776123
2023-04-12T11:10:52.710Z,76.837158
2023-04-12T11:12:01.444Z,75.726318
2023-04-12T11:13:12.112Z,76.330566
2023-04-12T11:14:20.819Z,75.494385
2023-04-12T11:15:31.824Z,76.947021
2023-04-12T11:16:41.655Z,76.745605
2023-04-12T11:17:50.266Z,76.611328
2023-04-12T11:18:58.038Z,78.570557
2023-04-12T11:20:07.614Z,77.319336
2023-04-12T11:21:17.349Z,76.605225
2023-04-12T11:22:27.019Z,77.624512
2023-04-12T11:23:35.700Z,76.641846
2023-04-12T11:24:44.445Z,77.758789
2023-04-12T11:25:54.133Z,77.087402
2023-04-12T11:27:02.811Z,77.288818
2023-04-12T11:28:25.410Z,77.966309
2023-04-12T11:29:23.137Z,76.202393
2023-04-12T11:30:31.825Z,76.403809
2023-04-12T11:31:41.558Z,76.000977
2023-04-12T11:32:51.310Z,76.44043
2023-04-12T11:33:59.943Z,76.812744
2023-04-12T11:35:09.609Z,76.33667
2023-04-12T11:36:17.283Z,76.812744
2023-04-12T11:37:27.250Z,77.624512
2023-04-12T11:38:34.680Z,76.403809
2023-04-12T11:39:44.393Z,76.708984
2023-04-12T11:40:53.054Z,76.708984
2023-04-12T11:42:02.833Z,76.031494
2023-04-12T11:43:11.510Z,76.947021
2023-04-12T11:44:19.240Z,76.849365
2023-04-12T11:45:28.907Z,77.050781
2023-04-12T11:46:37.590Z,76.9104
2023-04-12T11:47:46.364Z,77.01416
2023-04-12T11:48:55.113Z,76.745605
2023-04-12T11:50:03.661Z,77.557373
2023-04-12T11:51:13.343Z,76.947021
2023-04-12T11:52:22.090Z,77.050781
2023-04-12T11:53:30.810Z,77.624512
2023-04-12T11:54:40.501Z,76.269531
2023-04-12T11:55:49.185Z,75.390625
2023-04-12T11:56:57.933Z,76.306152
2023-04-12T11:58:07.583Z,75.286865
2023-04-12T11:59:17.272Z,76.165771
2023-04-12T12:00:27.156Z,74.44458
2023-04-12T12:01:37.837Z,74.780273
2023-04-12T12:02:56.186Z,76.000977
2023-04-12T12:03:58.440Z,75.592041
2023-04-12T12:05:07.021Z,75.323486
2023-04-12T12:06:15.707Z,76.031494
2023-04-12T12:07:24.420Z,76.165771
2023-04-12T12:08:32.949Z,75.219727
2023-04-12T12:09:41.615Z,74.267578
2023-04-12T12:11:04.538Z,74.066162
2023-04-12T12:11:59.993Z,72.747803
2023-04-12T12:13:09.692Z,72.784424
2023-04-12T12:14:19.358Z,73.358154
2023-04-12T12:15:29.065Z,73.760986
2023-04-12T12:16:37.740Z,73.699951
2023-04-12T12:17:47.481Z,73.492432
2023-04-12T12:18:57.176Z,72.98584
2023-04-12T12:20:05.863Z,73.394775
2023-04-12T12:21:13.504Z,74.572754
2023-04-12T12:22:23.224Z,72.747803
2023-04-12T12:23:31.985Z,72.851562
2023-04-12T12:24:43.644Z,73.730469
2023-04-12T12:25:51.569Z,72.717285
2023-04-12T12:27:00.904Z,72.918701
2023-04-12T12:28:10.702Z,72.747803
2023-04-12T12:29:19.401Z,73.291016
2023-04-12T12:30:27.059Z,73.797607
2023-04-12T12:31:36.797Z,73.358154
2023-04-12T12:32:46.523Z,72.747803
2023-04-12T12:33:56.188Z,73.55957
2023-04-12T12:35:04.865Z,72.717285
2023-04-12T12:36:13.564Z,72.009277
2023-04-12T12:37:23.253Z,72.918701
2023-04-12T12:38:32.712Z,72.814941
2023-04-12T12:39:40.583Z,72.98584
2023-04-12T12:40:50.304Z,71.398926
2023-04-12T12:41:58.996Z,71.234131
2023-04-12T12:43:08.701Z,71.801758
2023-04-12T12:44:17.389Z,70.794678
2023-04-12T12:45:27.041Z,71.264648
2023-04-12T12:46:51.331Z,70.825195
2023-04-12T12:47:47.541Z,70.861816
2023-04-12T12:48:56.117Z,68.103027
2023-04-12T12:50:05.783Z,67.901611
2023-04-12T12:51:14.465Z,67.669678
2023-04-12T12:52:24.193Z,67.163086
2023-04-12T12:53:33.839Z,67.06543
2023-04-12T12:54:43.487Z,67.468262
2023-04-12T12:55:53.158Z,67.633057
2023-04-12T12:57:00.851Z,67.028809
2023-04-12T12:58:09.551Z,66.998291
2023-04-12T12:59:18.242Z,66.967773
2023-04-12T13:00:26.895Z,65.490723
2023-04-12T13:01:35.666Z,66.558838
2023-04-12T13:02:45.559Z,67.529297
2023-04-12T13:03:55.187Z,67.431641
2023-04-12T13:05:04.750Z,66.894531
2023-04-12T13:06:14.407Z,67.39502
2023-04-12T13:07:23.139Z,67.730713
2023-04-12T13:08:32.909Z,68.07251
2023-04-12T13:09:42.569Z,68.170166
2023-04-12T13:10:51.230Z,67.431641
2023-04-12T13:11:59.940Z,67.932129